Time;durP1;ratioP1;P1;durP2;ratioP2;P2;SDS_P1;SDS_P2;PMS_P1;PMS_P2;Temp;Humidity;BMP_temperature;BMP_pressure;BME280_temperature;BME280_humidity;BME280_pressure;Samples;Min_cycle;Max_cycle;Signal;HPM_P1;HPM_P2
2021/04/06 00:00:47;;;;;;;4.10;1.05;;;14.80;53.50;;;;;;5074468;28;20332;-75
2021/04/06 00:03:15;;;;;;;4.53;1.00;;;14.80;53.50;;;;;;5094595;28;20404;-75
2021/04/06 00:05:46;;;;;;;3.72;0.82;;;14.80;53.50;;;;;;5094560;28;20443;-74
2021/04/06 00:08:12;;;;;;;6.20;0.80;;;14.80;53.40;;;;;;5080588;28;20040;-76
2021/04/06 00:10:44;;;;;;;4.97;0.88;;;14.80;53.40;;;;;;5073947;28;20040;-75
2021/04/06 00:13:11;;;;;;;4.43;1.15;;;14.80;53.50;;;;;;5079661;28;20059;-76
2021/04/06 00:15:38;;;;;;;4.88;1.30;;;14.80;53.40;;;;;;5094042;28;20374;-75
2021/04/06 00:18:07;;;;;;;4.63;1.10;;;14.70;53.40;;;;;;5097778;28;20167;-78
2021/04/06 00:20:37;;;;;;;3.42;1.02;;;14.70;53.50;;;;;;5098672;28;20348;-75
2021/04/06 00:23:05;;;;;;;6.28;1.33;;;14.70;53.40;;;;;;5096854;28;20048;-75
2021/04/06 00:25:33;;;;;;;6.72;1.67;;;14.70;53.40;;;;;;5098192;28;20055;-77
2021/04/06 00:28:04;;;;;;;4.35;1.05;;;14.70;53.40;;;;;;5096085;28;20213;-75
2021/04/06 00:30:33;;;;;;;5.50;1.23;;;14.70;53.40;;;;;;5097956;28;20039;-75
2021/04/06 00:33:05;;;;;;;4.43;1.10;;;14.60;53.30;;;;;;5096911;28;20051;-77
2021/04/06 00:35:34;;;;;;;5.03;1.10;;;14.60;53.20;;;;;;5098130;28;20048;-74
2021/04/06 00:38:01;;;;;;;7.53;1.40;;;14.70;53.30;;;;;;5097937;28;20046;-75
2021/04/06 00:40:31;;;;;;;3.65;1.00;;;14.60;53.10;;;;;;5093536;28;20509;-74
2021/04/06 00:43:03;;;;;;;4.55;1.30;;;14.60;53.10;;;;;;5092790;28;20040;-75
2021/04/06 00:45:32;;;;;;;5.28;1.35;;;14.60;53.10;;;;;;5096720;28;20042;-75
2021/04/06 00:47:59;;;;;;;6.07;1.30;;;14.60;53.10;;;;;;5097881;28;20036;-75
2021/04/06 00:50:31;;;;;;;5.45;1.50;;;14.60;53.10;;;;;;5097844;28;20050;-74
2021/04/06 00:52:57;;;;;;;3.55;1.08;;;14.60;53.00;;;;;;5095346;28;20052;-76
2021/04/06 00:55:23;;;;;;;4.03;1.23;;;14.50;53.00;;;;;;5097761;28;20424;-75
2021/04/06 00:57:49;;;;;;;5.60;1.50;;;14.60;53.10;;;;;;5081052;28;20037;-75
2021/04/06 01:00:24;;;;;;;6.88;1.70;;;14.60;53.10;;;;;;5077430;28;20059;-74
2021/04/06 01:03:08;;;;;;;6.65;2.03;;;14.60;53.10;;;;;;5090947;28;20454;-75
2021/04/06 01:05:59;;;;;;;4.18;1.30;;;14.60;53.00;;;;;;5097714;28;20043;-76
2021/04/06 01:08:33;;;;;;;5.97;1.60;;;14.50;52.90;;;;;;5092323;28;20040;-76
2021/04/06 01:11:03;;;;;;;6.20;1.60;;;14.50;53.00;;;;;;5076655;28;20384;-76
2021/04/06 01:13:29;;;;;;;5.60;1.45;;;14.50;53.20;;;;;;5095677;28;20342;-76
2021/04/06 01:15:55;;;;;;;5.07;1.85;;;14.50;53.30;;;;;;5096692;28;20113;-74
2021/04/06 01:18:23;;;;;;;6.05;1.80;;;14.50;53.30;;;;;;5096826;28;20487;-74
2021/04/06 01:20:50;;;;;;;8.05;1.70;;;14.50;53.20;;;;;;5097042;28;20036;-75
2021/04/06 01:23:20;;;;;;;6.97;1.48;;;14.50;53.20;;;;;;5096245;28;20407;-77
2021/04/06 01:25:50;;;;;;;7.45;1.55;;;14.50;53.10;;;;;;5097182;28;20040;-75
2021/04/06 01:28:16;;;;;;;7.05;1.90;;;14.40;53.10;;;;;;5096496;28;20334;-76
2021/04/06 01:30:47;;;;;;;3.85;1.13;;;14.40;53.10;;;;;;5096684;28;20396;-75
2021/04/06 01:33:16;;;;;;;7.68;1.73;;;14.40;53.20;;;;;;5096442;28;20373;-75
2021/04/06 01:35:46;;;;;;;7.53;2.15;;;14.40;53.20;;;;;;5096709;28;20097;-75
2021/04/06 01:38:13;;;;;;;7.97;1.80;;;14.40;53.20;;;;;;5096667;28;20040;-75
2021/04/06 01:40:41;;;;;;;5.28;1.73;;;14.40;53.10;;;;;;5096875;28;20060;-75
2021/04/06 01:43:08;;;;;;;7.47;1.80;;;14.40;53.00;;;;;;5096066;28;20048;-73
2021/04/06 01:45:43;;;;;;;7.78;1.67;;;14.40;53.10;;;;;;5096506;28;20373;-74
2021/04/06 01:48:14;;;;;;;6.55;2.35;;;14.30;53.10;;;;;;5096304;28;20040;-75
2021/04/06 01:50:42;;;;;;;4.80;1.77;;;14.30;53.20;;;;;;5096441;28;20036;-76
2021/04/06 01:53:09;;;;;;;6.82;2.03;;;14.30;53.10;;;;;;5095597;28;20105;-76
2021/04/06 01:55:37;;;;;;;7.60;1.80;;;14.30;53.10;;;;;;5095974;28;20039;-76
2021/04/06 01:58:04;;;;;;;7.75;1.77;;;14.30;53.20;;;;;;5085125;28;20044;-75
2021/04/06 02:03:05;;;;;;;10.25;2.33;;;14.30;53.30;;;;;;5089626;28;20044;-75
2021/04/06 02:05:31;;;;;;;6.05;2.25;;;14.30;53.30;;;;;;5095939;28;20423;-75
2021/04/06 02:08:02;;;;;;;8.55;2.15;;;14.30;53.30;;;;;;5095892;28;20050;-76
2021/04/06 02:10:28;;;;;;;9.05;2.30;;;14.20;53.20;;;;;;5096667;28;20070;-76
2021/04/06 02:12:54;;;;;;;7.07;1.90;;;14.20;53.10;;;;;;5094446;28;20543;-75
2021/04/06 02:15:20;;;;;;;5.30;1.77;;;14.30;53.40;;;;;;5092548;28;20124;-75
2021/04/06 02:17:51;;;;;;;5.70;1.52;;;14.20;53.10;;;;;;5095784;28;20054;-75
2021/04/06 02:20:24;;;;;;;8.00;2.55;;;14.20;53.10;;;;;;5095369;28;20048;-75
2021/04/06 02:23:04;;;;;;;5.88;1.65;;;14.20;53.10;;;;;;5090057;28;20093;-75
2021/04/06 02:25:30;;;;;;;8.38;2.20;;;14.20;53.10;;;;;;5095692;28;20175;-75
2021/04/06 02:27:57;;;;;;;7.97;2.30;;;14.20;53.20;;;;;;5095522;28;20149;-73
2021/04/06 02:30:32;;;;;;;7.07;2.00;;;14.20;53.20;;;;;;5081879;28;20055;-77
2021/04/06 02:33:01;;;;;;;7.63;1.80;;;14.20;53.30;;;;;;5088333;28;20063;-75
2021/04/06 02:35:27;;;;;;;6.40;1.88;;;14.20;53.30;;;;;;5075781;28;20040;-75
2021/04/06 02:37:54;;;;;;;8.18;2.30;;;14.10;53.30;;;;;;5075554;28;20434;-75
2021/04/06 02:40:21;;;;;;;9.25;2.67;;;14.20;53.30;;;;;;5074923;28;20075;-75
2021/04/06 02:42:54;;;;;;;6.00;1.80;;;14.20;53.40;;;;;;5086455;28;20044;-74
2021/04/06 02:45:29;;;;;;;5.03;1.37;;;14.20;53.30;;;;;;5077700;28;20335;-75
2021/04/06 02:48:08;;;;;;;7.50;1.88;;;14.10;53.20;;;;;;5075179;28;20052;-75
2021/04/06 02:50:35;;;;;;;5.70;1.80;;;14.10;53.10;;;;;;5078036;28;20063;-76
2021/04/06 02:53:06;;;;;;;6.68;1.80;;;14.10;53.20;;;;;;5094763;28;20114;-75
2021/04/06 02:55:34;;;;;;;6.72;2.00;;;14.10;53.20;;;;;;5094796;28;20046;-74
2021/04/06 02:58:00;;;;;;;5.88;1.70;;;14.10;53.30;;;;;;5093233;28;20111;-75
2021/04/06 03:00:28;;;;;;;9.30;1.70;;;14.10;53.20;;;;;;5095407;28;20236;-75
2021/04/06 03:02:59;;;;;;;5.53;1.30;;;14.10;53.00;;;;;;5094909;28;20046;-75
2021/04/06 03:05:33;;;;;;;4.13;1.23;;;14.10;53.10;;;;;;5094228;28;20043;-75
2021/04/06 03:08:00;;;;;;;5.22;1.50;;;14.10;53.10;;;;;;5095066;28;20044;-75
2021/04/06 03:10:31;;;;;;;4.90;1.50;;;14.10;53.10;;;;;;5095736;28;20050;-75
2021/04/06 03:13:03;;;;;;;8.15;1.52;;;14.10;53.00;;;;;;5094164;28;20043;-74
2021/04/06 03:15:31;;;;;;;4.28;1.40;;;14.10;53.20;;;;;;5094688;28;20040;-75
2021/04/06 03:17:59;;;;;;;6.47;1.85;;;14.10;53.20;;;;;;5094891;28;20051;-76
2021/04/06 03:20:26;;;;;;;4.60;1.67;;;14.10;53.20;;;;;;5094409;28;20047;-75
2021/04/06 03:22:55;;;;;;;5.72;1.75;;;14.00;53.00;;;;;;5094246;28;20097;-75
2021/04/06 03:25:22;;;;;;;5.25;1.55;;;14.10;53.00;;;;;;5090183;28;20044;-74
2021/04/06 03:27:50;;;;;;;6.07;1.50;;;14.00;52.90;;;;;;5094960;28;20036;-76
2021/04/06 03:30:37;;;;;;;7.00;1.55;;;14.00;52.80;;;;;;5079925;28;20048;-75
2021/04/06 03:33:12;;;;;;;4.22;1.40;;;14.00;52.80;;;;;;5076254;28;20040;-75
2021/04/06 03:35:40;;;;;;;7.50;1.77;;;14.00;52.80;;;;;;5093819;28;20332;-76
2021/04/06 03:38:10;;;;;;;5.03;1.20;;;14.00;52.80;;;;;;5094848;28;20400;-74
2021/04/06 03:40:38;;;;;;;6.93;1.90;;;14.00;52.90;;;;;;5078954;28;20032;-75
2021/04/06 03:43:13;;;;;;;5.43;1.30;;;14.00;53.00;;;;;;5075966;28;20032;-74
2021/04/06 03:46:02;;;;;;;5.38;1.80;;;14.00;52.90;;;;;;5084764;28;20063;-74
2021/04/06 03:48:30;;;;;;;5.95;1.75;;;14.00;52.90;;;;;;5074766;28;20061;-76
2021/04/06 03:50:58;;;;;;;5.90;1.60;;;14.00;53.00;;;;;;5076207;28;20048;-74
2021/04/06 03:53:26;;;;;;;5.07;1.40;;;14.00;53.00;;;;;;5097023;28;20055;-75
2021/04/06 03:56:13;;;;;;;5.78;1.25;;;13.90;52.90;;;;;;5097960;28;20040;-74
2021/04/06 04:01:34;;;;;;;4.18;1.33;;;14.00;52.90;;;;;;5080024;28;20066;-75
2021/04/06 04:04:00;;;;;;;3.80;1.20;;;13.90;52.80;;;;;;5098341;28;20424;-75
2021/04/06 04:06:29;;;;;;;5.05;1.38;;;13.90;52.80;;;;;;5098375;28;20383;-73
2021/04/06 04:08:55;;;;;;;7.40;1.77;;;13.90;52.90;;;;;;5098187;28;20040;-74
2021/04/06 04:11:24;;;;;;;5.45;1.38;;;13.90;52.80;;;;;;5098045;28;20050;-75
2021/04/06 04:13:50;;;;;;;7.43;1.55;;;13.90;52.80;;;;;;5098356;28;20055;-74
2021/04/06 04:16:16;;;;;;;5.35;1.20;;;13.90;52.80;;;;;;5098165;28;20042;-77
2021/04/06 04:18:42;;;;;;;4.22;1.20;;;13.90;52.80;;;;;;5097795;28;20059;-75
2021/04/06 04:21:12;;;;;;;3.28;0.90;;;13.90;52.80;;;;;;5097802;28;20050;-76
2021/04/06 04:23:38;;;;;;;8.95;1.88;;;13.90;52.80;;;;;;5098190;28;20346;-75
2021/04/06 04:26:04;;;;;;;3.72;1.30;;;13.90;52.80;;;;;;5097935;28;20111;-76
2021/04/06 04:28:30;;;;;;;4.35;1.38;;;13.90;52.80;;;;;;5098052;28;20385;-75
2021/04/06 04:30:59;;;;;;;4.45;1.33;;;13.80;52.70;;;;;;5097786;28;20040;-75
2021/04/06 04:33:25;;;;;;;4.95;1.38;;;13.80;52.80;;;;;;5091391;28;20085;-75
2021/04/06 04:35:51;;;;;;;5.20;1.42;;;13.80;52.90;;;;;;5097747;28;20060;-75
2021/04/06 04:38:17;;;;;;;4.82;1.30;;;13.90;52.90;;;;;;5098450;28;20040;-74
2021/04/06 04:40:44;;;;;;;5.05;1.15;;;13.90;52.80;;;;;;5097918;28;20395;-75
2021/04/06 04:43:11;;;;;;;5.07;0.88;;;13.90;52.80;;;;;;5097264;28;20059;-75
2021/04/06 04:45:38;;;;;;;3.70;1.20;;;13.80;52.80;;;;;;5097636;28;20044;-74
2021/04/06 04:48:04;;;;;;;3.70;1.20;;;13.90;52.80;;;;;;5097482;28;20050;-75
2021/04/06 04:50:31;;;;;;;6.85;1.10;;;13.80;52.80;;;;;;5097380;28;20036;-74
2021/04/06 04:52:57;;;;;;;6.07;1.67;;;13.80;52.80;;;;;;5096595;28;20131;-75
2021/04/06 04:55:24;;;;;;;4.57;1.33;;;13.80;52.70;;;;;;5097712;28;20040;-75
2021/04/06 04:57:49;;;;;;;3.83;0.90;;;13.90;52.70;;;;;;5097723;28;20454;-73
2021/04/06 05:00:16;;;;;;;3.70;0.88;;;13.90;52.60;;;;;;5095722;28;20028;-76
2021/04/06 05:02:43;;;;;;;7.15;1.13;;;13.80;52.50;;;;;;5096399;28;20032;-75
2021/04/06 05:05:11;;;;;;;5.88;1.08;;;13.80;52.90;;;;;;5094380;28;20040;-77
2021/04/06 05:07:37;;;;;;;6.60;1.48;;;13.70;53.00;;;;;;5096929;28;20540;-75
2021/04/06 05:10:08;;;;;;;6.68;1.58;;;13.70;53.20;;;;;;5096427;28;20447;-79
2021/04/06 05:12:35;;;;;;;4.68;1.00;;;13.80;53.00;;;;;;5096922;28;20040;-75
2021/04/06 05:15:02;;;;;;;5.50;1.58;;;13.90;52.80;;;;;;5095903;28;20098;-75
2021/04/06 05:17:28;;;;;;;5.95;1.42;;;14.10;52.70;;;;;;5082356;28;20440;-76
2021/04/06 05:19:55;;;;;;;8.40;1.30;;;14.30;52.40;;;;;;5089045;28;20109;-81
2021/04/06 05:22:21;;;;;;;4.40;1.15;;;14.50;52.40;;;;;;5096653;28;20043;-77
2021/04/06 05:24:47;;;;;;;7.43;1.52;;;14.60;52.30;;;;;;5096469;28;20036;-75
2021/04/06 05:27:13;;;;;;;11.30;1.58;;;14.80;52.70;;;;;;5096477;28;20031;-77
2021/04/06 05:29:41;;;;;;;11.05;1.60;;;14.80;52.80;;;;;;5096622;28;20036;-75
2021/04/06 05:32:07;;;;;;;8.20;1.55;;;15.10;53.30;;;;;;5081755;28;20115;-76
2021/04/06 05:34:34;;;;;;;11.02;2.05;;;15.20;53.80;;;;;;5095132;28;20070;-74
2021/04/06 05:37:00;;;;;;;8.48;1.55;;;15.40;54.30;;;;;;5075265;28;20348;-74
2021/04/06 05:39:26;;;;;;;8.75;1.73;;;15.50;54.60;;;;;;5077503;28;20029;-73
2021/04/06 05:41:52;;;;;;;11.30;2.58;;;15.60;54.60;;;;;;5081032;28;20119;-73
2021/04/06 05:44:18;;;;;;;13.63;1.58;;;15.80;54.80;;;;;;5088843;28;20107;-74
2021/04/06 05:46:49;;;;;;;12.45;1.67;;;15.90;55.00;;;;;;5092447;28;20139;-75
2021/04/06 05:49:20;;;;;;;12.30;2.10;;;16.00;55.10;;;;;;5096030;28;20051;-74
2021/04/06 05:51:46;;;;;;;8.40;1.73;;;16.00;55.50;;;;;;5095957;28;20048;-74
2021/04/06 05:54:13;;;;;;;9.13;1.60;;;16.00;55.30;;;;;;5086083;28;20489;-74
2021/04/06 05:56:39;;;;;;;14.75;1.55;;;16.00;55.30;;;;;;5091495;28;20040;-73
2021/04/06 05:59:06;;;;;;;11.38;1.90;;;16.00;55.80;;;;;;5082417;28;20044;-76
2021/04/06 06:01:38;;;;;;;13.77;1.80;;;16.10;55.70;;;;;;5085258;28;20056;-74
2021/04/06 06:04:09;;;;;;;9.68;1.10;;;16.10;55.80;;;;;;5078906;28;20051;-75
2021/04/06 06:06:36;;;;;;;7.47;1.13;;;16.20;55.50;;;;;;5095374;28;20036;-74
2021/04/06 06:09:04;;;;;;;7.35;1.65;;;16.30;55.20;;;;;;5095546;28;20056;-74
2021/04/06 06:11:32;;;;;;;9.38;1.52;;;16.30;54.70;;;;;;5094153;28;20044;-73
2021/04/06 06:13:58;;;;;;;7.13;1.35;;;16.40;55.00;;;;;;5076015;28;20094;-75
2021/04/06 06:16:31;;;;;;;16.60;2.08;;;16.40;54.40;;;;;;5087695;28;20052;-74
2021/04/06 06:19:03;;;;;;;11.80;1.45;;;16.40;51.50;;;;;;5076804;28;20036;-73
2021/04/06 06:21:39;;;;;;;6.93;1.25;;;16.30;49.40;;;;;;5094997;28;20040;-73
2021/04/06 06:24:06;;;;;;;6.07;1.25;;;16.20;49.40;;;;;;5095212;28;20097;-73
2021/04/06 06:26:32;;;;;;;4.82;0.98;;;16.20;49.90;;;;;;5094898;28;20107;-73
2021/04/06 06:29:18;;;;;;;6.85;1.50;;;16.10;50.10;;;;;;5097921;28;20119;-73
2021/04/06 06:31:45;;;;;;;5.00;1.50;;;16.00;49.50;;;;;;5086176;28;20108;-74
2021/04/06 06:34:33;;;;;;;8.88;1.65;;;15.90;50.60;;;;;;5094717;28;20048;-75
2021/04/06 06:37:03;;;;;;;8.52;1.13;;;15.80;51.30;;;;;;5095915;28;20063;-78
2021/04/06 06:39:29;;;;;;;6.28;1.02;;;15.80;51.90;;;;;;5089010;28;20105;-75
2021/04/06 06:42:08;;;;;;;7.30;1.45;;;15.70;52.50;;;;;;5086235;28;20044;-76
2021/04/06 06:44:35;;;;;;;6.25;0.88;;;15.60;52.90;;;;;;5095101;28;20075;-77
2021/04/06 06:47:10;;;;;;;6.10;1.45;;;15.60;53.20;;;;;;5094301;28;20336;-77
2021/04/06 06:49:38;;;;;;;5.75;1.15;;;15.60;53.30;;;;;;5082777;28;20060;-76
2021/04/06 06:52:21;;;;;;;8.18;1.45;;;15.60;54.10;;;;;;5094993;28;20044;-76
2021/04/06 06:54:47;;;;;;;3.40;1.05;;;15.60;53.60;;;;;;5095172;28;20064;-76
2021/04/06 06:57:15;;;;;;;5.45;0.93;;;15.60;53.70;;;;;;5095028;28;20446;-76
2021/04/06 06:59:47;;;;;;;6.65;1.20;;;15.40;49.40;;;;;;5093797;28;20097;-76
2021/04/06 07:02:27;;;;;;;6.50;1.05;;;15.30;52.90;;;;;;5095389;28;20172;-75
2021/04/06 07:05:09;;;;;;;5.22;1.38;;;15.30;53.30;;;;;;5095178;28;20359;-76
2021/04/06 07:08:03;;;;;;;5.63;0.88;;;15.40;53.40;;;;;;5094333;28;20604;-76
2021/04/06 07:10:34;;;;;;;5.33;1.20;;;15.50;53.60;;;;;;5074902;28;20142;-77
2021/04/06 07:13:03;;;;;;;3.83;0.65;;;15.50;53.70;;;;;;5080769;28;20036;-77
2021/04/06 07:15:29;;;;;;;3.40;1.00;;;15.50;53.80;;;;;;5095138;28;20032;-76
2021/04/06 07:18:06;;;;;;;6.32;1.10;;;15.50;53.60;;;;;;5094629;28;20101;-75
2021/04/06 07:20:40;;;;;;;3.55;1.05;;;15.60;53.50;;;;;;5094745;28;20064;-75
2021/04/06 07:23:09;;;;;;;3.42;0.70;;;15.60;49.80;;;;;;5094806;28;20116;-78
2021/04/06 07:25:35;;;;;;;6.15;0.90;;;15.60;52.90;;;;;;5078357;28;20463;-77
2021/04/06 07:28:03;;;;;;;3.38;0.82;;;15.60;53.00;;;;;;5097776;28;20063;-77
2021/04/06 07:30:30;;;;;;;4.80;1.13;;;15.60;53.40;;;;;;5091380;28;20066;-79
2021/04/06 07:32:56;;;;;;;3.05;0.73;;;15.60;53.40;;;;;;5095657;28;20382;-74
2021/04/06 07:35:24;;;;;;;5.40;1.20;;;15.70;53.60;;;;;;5092316;28;20036;-75
2021/04/06 07:37:51;;;;;;;6.78;1.25;;;15.10;49.10;;;;;;5078954;28;20048;-82
2021/04/06 07:40:22;;;;;;;13.38;1.30;;;15.30;52.60;;;;;;5099047;28;20032;-75
2021/04/06 07:42:48;;;;;;;9.43;1.50;;;15.30;53.00;;;;;;5098982;28;20042;-74
2021/04/06 07:45:23;;;;;;;11.27;1.75;;;15.30;52.60;;;;;;5098762;28;20128;-74
2021/04/06 07:47:51;;;;;;;9.30;1.25;;;15.30;52.00;;;;;;5096911;28;20040;-75
2021/04/06 07:50:42;;;;;;;9.77;1.42;;;15.40;52.20;;;;;;5096856;28;20090;-74
2021/04/06 07:53:29;;;;;;;13.25;1.58;;;15.50;52.20;;;;;;5089147;28;20101;-73
2021/04/06 07:56:00;;;;;;;9.88;1.20;;;15.50;51.90;;;;;;5086284;28;20138;-73
2021/04/06 07:58:48;;;;;;;6.55;1.77;;;15.60;52.30;;;;;;5099124;28;20063;-72
2021/04/06 08:01:29;;;;;;;9.02;1.45;;;15.60;51.90;;;;;;5115354;28;20031;-74
2021/04/06 08:04:00;;;;;;;8.93;1.25;;;15.60;51.90;;;;;;5079569;28;20036;-74
2021/04/06 08:06:28;;;;;;;10.82;1.65;;;15.70;52.20;;;;;;5097360;28;20098;-73
2021/04/06 08:08:54;;;;;;;8.45;1.67;;;15.70;52.20;;;;;;5097435;28;20035;-76
2021/04/06 08:11:41;;;;;;;9.73;1.38;;;15.70;51.80;;;;;;5097022;28;20346;-74
2021/04/06 08:14:07;;;;;;;6.70;1.30;;;15.70;51.20;;;;;;5097500;28;20339;-74
2021/04/06 08:16:33;;;;;;;6.10;1.17;;;15.70;51.20;;;;;;5097269;28;20050;-74
2021/04/06 08:19:05;;;;;;;8.50;1.40;;;15.70;51.50;;;;;;5097667;28;20039;-75
2021/04/06 08:21:32;;;;;;;8.13;1.40;;;15.70;51.10;;;;;;5098024;28;20320;-74
2021/04/06 08:23:58;;;;;;;2.92;0.70;;;15.80;51.10;;;;;;5096617;28;20501;-74
2021/04/06 08:26:33;;;;;;;6.32;1.40;;;15.70;51.60;;;;;;5097287;28;20036;-74
2021/04/06 08:29:23;;;;;;;6.07;1.05;;;15.80;51.10;;;;;;5097503;28;20140;-73
2021/04/06 08:32:10;;;;;;;4.47;0.60;;;15.70;50.30;;;;;;5084446;28;20165;-74
2021/04/06 08:34:51;;;;;;;3.80;0.98;;;15.70;50.70;;;;;;5071033;28;20071;-74
2021/04/06 08:37:19;;;;;;;4.90;1.02;;;15.70;50.30;;;;;;5085758;28;20186;-74
2021/04/06 08:39:46;;;;;;;5.43;1.42;;;15.70;50.50;;;;;;5086259;28;20127;-75
2021/04/06 08:42:15;;;;;;;6.10;1.00;;;15.70;50.60;;;;;;5090574;28;20101;-71
2021/04/06 08:44:44;;;;;;;4.28;0.95;;;15.70;50.70;;;;;;5083866;28;20355;-72
2021/04/06 08:47:51;;;;;;;9.73;1.35;;;15.30;46.80;;;;;;5091646;28;20050;-72
2021/04/06 08:50:36;;;;;;;4.82;0.80;;;15.30;51.00;;;;;;5110315;28;20047;-72
2021/04/06 08:53:03;;;;;;;7.30;1.00;;;15.40;51.00;;;;;;5085539;28;20052;-72
2021/04/06 08:55:29;;;;;;;4.82;0.70;;;15.50;50.80;;;;;;5092085;28;20370;-73
2021/04/06 08:57:59;;;;;;;2.30;0.52;;;15.60;51.00;;;;;;5086927;28;20051;-73
2021/04/06 09:00:26;;;;;;;6.68;1.10;;;15.60;50.70;;;;;;5086697;28;20055;-72
2021/04/06 09:03:23;;;;;;;4.63;1.05;;;15.60;50.30;;;;;;5091333;28;20047;-73
2021/04/06 09:05:49;;;;;;;5.05;0.85;;;15.40;47.10;;;;;;5074441;28;20412;-72
2021/04/06 09:08:25;;;;;;;6.10;1.33;;;15.40;50.40;;;;;;5088829;28;20040;-75
2021/04/06 09:10:51;;;;;;;5.93;1.05;;;15.30;50.80;;;;;;5090052;28;21817;-73
2021/04/06 09:13:17;;;;;;;4.18;0.80;;;15.40;51.40;;;;;;5096670;28;20036;-76
2021/04/06 09:15:47;;;;;;;6.15;1.23;;;15.50;51.70;;;;;;5095573;28;20138;-75
2021/04/06 09:18:12;;;;;;;5.65;1.23;;;15.50;51.50;;;;;;5096032;28;20036;-73
2021/04/06 09:20:39;;;;;;;5.57;1.45;;;15.60;51.90;;;;;;5095178;28;20103;-73
2021/04/06 09:23:06;;;;;;;6.38;1.10;;;15.60;51.90;;;;;;5094504;28;20047;-74
2021/04/06 09:25:32;;;;;;;5.80;0.85;;;15.70;51.70;;;;;;5094524;28;20036;-75
2021/04/06 09:28:02;;;;;;;5.88;1.20;;;15.80;52.00;;;;;;5093646;28;20069;-74
2021/04/06 09:30:33;;;;;;;5.82;1.20;;;15.70;52.00;;;;;;5095587;28;20111;-74
2021/04/06 09:33:02;;;;;;;7.13;1.25;;;15.80;52.20;;;;;;5091262;28;20061;-74
2021/04/06 09:35:28;;;;;;;6.70;1.15;;;15.80;52.50;;;;;;5095846;28;20086;-77
2021/04/06 09:37:57;;;;;;;6.20;1.13;;;15.70;52.30;;;;;;5096550;28;20375;-77
2021/04/06 09:40:29;;;;;;;5.45;1.20;;;15.70;53.10;;;;;;5095255;28;20068;-73
2021/04/06 09:42:55;;;;;;;7.35;1.90;;;15.70;53.00;;;;;;5093800;28;20519;-75
2021/04/06 09:45:20;;;;;;;8.55;1.38;;;15.70;53.10;;;;;;5085924;28;20131;-74
2021/04/06 09:47:47;;;;;;;6.30;1.27;;;15.70;53.20;;;;;;5087882;28;20358;-73
2021/04/06 09:50:13;;;;;;;4.97;0.80;;;15.90;53.20;;;;;;5088389;28;20040;-74
2021/04/06 09:52:39;;;;;;;4.28;1.00;;;15.90;53.50;;;;;;5086180;28;20052;-77
2021/04/06 09:55:09;;;;;;;10.88;1.25;;;16.00;53.00;;;;;;5086295;28;20363;-75
2021/04/06 09:57:46;;;;;;;6.32;1.38;;;15.90;52.00;;;;;;5087984;28;20431;-76
2021/04/06 10:00:18;;;;;;;5.45;1.42;;;15.90;52.40;;;;;;5093530;28;20040;-76
2021/04/06 10:03:05;;;;;;;14.32;1.90;;;15.90;52.00;;;;;;5094947;28;21314;-75
2021/04/06 10:05:32;;;;;;;9.30;1.40;;;15.90;49.30;;;;;;5093676;28;20047;-75
2021/04/06 10:07:58;;;;;;;10.48;1.33;;;15.80;50.40;;;;;;5095514;28;20142;-77
2021/04/06 10:10:31;;;;;;;14.35;1.88;;;15.60;48.80;;;;;;5093630;28;20036;-75
2021/04/06 10:12:58;;;;;;;10.52;2.55;;;15.50;49.10;;;;;;5093340;28;20049;-77
2021/04/06 10:15:27;;;;;;;11.77;1.45;;;15.40;48.70;;;;;;5087820;28;20047;-73
2021/04/06 10:17:54;;;;;;;8.70;1.85;;;15.10;48.00;;;;;;5088632;28;20032;-77
2021/04/06 10:20:20;;;;;;;11.10;1.60;;;14.80;47.90;;;;;;5100559;28;20024;-72
2021/04/06 10:22:49;;;;;;;10.63;1.75;;;14.70;50.60;;;;;;5116147;28;20035;-74
2021/04/06 10:25:22;;;;;;;7.30;1.88;;;14.80;51.80;;;;;;5095799;28;20101;-78
2021/04/06 10:28:00;;;;;;;5.50;1.15;;;14.80;51.50;;;;;;5094602;28;20059;-77
2021/04/06 10:30:47;;;;;;;7.50;1.88;;;14.90;51.20;;;;;;5094865;28;20040;-77
2021/04/06 10:33:18;;;;;;;8.65;1.23;;;14.90;50.70;;;;;;5095211;28;20047;-78
2021/04/06 10:35:48;;;;;;;8.10;1.67;;;14.90;51.40;;;;;;5085823;28;20101;-78
2021/04/06 10:38:23;;;;;;;9.88;1.75;;;14.90;51.50;;;;;;5095369;28;20093;-79
2021/04/06 10:41:17;;;;;;;5.20;1.10;;;14.90;51.60;;;;;;5095121;28;20036;-78
2021/04/06 10:43:48;;;;;;;6.50;1.15;;;14.90;50.00;;;;;;5095696;28;20040;-77
2021/04/06 10:46:20;;;;;;;6.18;1.30;;;14.80;51.20;;;;;;5094170;28;20438;-78
2021/04/06 10:48:48;;;;;;;6.68;1.42;;;14.80;51.10;;;;;;5094058;28;20423;-76
2021/04/06 10:51:18;;;;;;;5.80;1.20;;;14.80;51.10;;;;;;5095998;28;20051;-76
2021/04/06 10:53:45;;;;;;;7.90;2.00;;;14.80;51.20;;;;;;5094457;28;20127;-78
2021/04/06 10:56:27;;;;;;;7.47;1.35;;;14.80;51.30;;;;;;5094016;28;20459;-77
2021/04/06 10:58:57;;;;;;;5.03;1.30;;;14.70;50.00;;;;;;5095488;28;20035;-78
2021/04/06 11:01:35;;;;;;;5.18;1.30;;;14.70;51.20;;;;;;5094200;28;20109;-77
2021/04/06 11:04:27;;;;;;;7.90;1.58;;;14.70;50.80;;;;;;5095777;28;20415;-78
2021/04/06 11:06:59;;;;;;;7.65;1.42;;;14.70;51.40;;;;;;5094948;28;20051;-78
2021/04/06 11:09:26;;;;;;;6.00;1.27;;;14.60;51.40;;;;;;5095116;28;20131;-79
2021/04/06 11:11:55;;;;;;;8.60;1.60;;;14.70;52.00;;;;;;5092870;28;20043;-83
2021/04/06 11:14:26;;;;;;;8.05;1.83;;;14.60;51.60;;;;;;5055814;28;20055;-80
2021/04/06 11:16:54;;;;;;;9.43;1.67;;;14.70;52.00;;;;;;5085543;28;20047;-77
2021/04/06 11:19:31;;;;;;;9.55;1.70;;;14.70;52.40;;;;;;5089598;28;20036;-82
2021/04/06 11:22:00;;;;;;;10.98;1.65;;;14.70;52.50;;;;;;5090215;28;20323;-79
2021/04/06 11:24:33;;;;;;;8.23;1.63;;;14.70;52.30;;;;;;5076063;28;20036;-84
2021/04/06 11:27:01;;;;;;;4.78;1.17;;;14.70;52.30;;;;;;5078852;28;20047;-82
2021/04/06 11:29:33;;;;;;;6.00;1.65;;;14.80;52.70;;;;;;5076985;28;20062;-81
2021/04/06 11:32:06;;;;;;;5.53;1.58;;;14.80;52.70;;;;;;5076351;28;20036;-78
2021/04/06 11:34:36;;;;;;;6.78;1.30;;;14.80;50.50;;;;;;5094498;28;20461;-80
2021/04/06 11:37:20;;;;;;;5.05;1.25;;;14.80;48.50;;;;;;5094932;28;20039;-88
2021/04/06 11:39:47;;;;;;;5.05;1.40;;;14.90;48.40;;;;;;5094630;28;20343;-78
2021/04/06 11:42:15;;;;;;;5.65;1.45;;;14.80;48.70;;;;;;5094611;28;20340;-76
2021/04/06 11:44:47;;;;;;;7.90;2.58;;;14.80;49.30;;;;;;5094749;28;20141;-83
2021/04/06 11:47:16;;;;;;;12.27;4.68;;;14.80;50.40;;;;;;5077064;28;20039;-79
2021/04/06 11:49:42;;;;;;;13.65;6.32;;;14.80;50.30;;;;;;5094469;28;20430;-79
2021/04/06 11:52:11;;;;;;;14.50;6.70;;;14.80;51.10;;;;;;5094511;28;20028;-80
2021/04/06 11:54:38;;;;;;;13.27;6.15;;;14.80;52.50;;;;;;5056184;28;20067;-79
2021/04/06 11:57:04;;;;;;;14.38;5.80;;;14.90;51.90;;;;;;5074590;28;20032;-80
2021/04/06 11:59:30;;;;;;;14.52;5.60;;;14.90;51.50;;;;;;5074288;28;20432;-81
2021/04/06 12:01:56;;;;;;;13.45;4.50;;;14.90;51.60;;;;;;5056463;28;20047;-79
2021/04/06 12:04:22;;;;;;;10.20;3.85;;;14.90;51.70;;;;;;5074576;28;20043;-80
2021/04/06 12:06:48;;;;;;;9.68;3.42;;;14.90;49.90;;;;;;5074085;28;20028;-80
2021/04/06 12:09:14;;;;;;;10.32;3.28;;;14.90;49.00;;;;;;5074457;28;20043;-80
2021/04/06 12:11:40;;;;;;;19.02;9.07;;;14.90;48.10;;;;;;5074893;28;20028;-77
2021/04/06 12:14:24;;;;;;;11.60;4.82;;;14.80;47.70;;;;;;5077944;28;20190;-84
2021/04/06 12:16:50;;;;;;;12.63;4.68;;;14.80;47.10;;;;;;5074497;28;20082;-83
2021/04/06 12:19:22;;;;;;;12.10;3.72;;;14.70;47.40;;;;;;5077032;28;20028;-81
2021/04/06 12:21:47;;;;;;;10.60;4.00;;;14.70;47.40;;;;;;5071285;28;20495;-78
2021/04/06 12:24:13;;;;;;;9.23;3.38;;;14.70;47.50;;;;;;5077899;28;20071;-82
2021/04/06 12:26:39;;;;;;;11.93;3.60;;;14.90;48.40;;;;;;5073407;28;20070;-81
2021/04/06 12:29:05;;;;;;;11.63;3.58;;;15.10;48.10;;;;;;5072654;28;20052;-75
2021/04/06 12:31:31;;;;;;;14.25;2.97;;;15.20;48.30;;;;;;5075798;28;20032;-74
2021/04/06 12:33:59;;;;;;;13.90;3.83;;;15.30;48.30;;;;;;5075660;28;20032;-78
2021/04/06 12:36:28;;;;;;;16.60;3.63;;;15.40;48.80;;;;;;5074910;28;20052;-83
2021/04/06 12:38:54;;;;;;;18.27;3.78;;;15.60;49.60;;;;;;5076980;28;20368;-81
2021/04/06 12:41:20;;;;;;;14.77;3.10;;;15.80;50.20;;;;;;5076802;28;20040;-78
2021/04/06 12:43:46;;;;;;;15.43;4.07;;;15.90;50.30;;;;;;5077547;28;20056;-78
2021/04/06 12:46:12;;;;;;;14.75;2.78;;;16.00;50.70;;;;;;5076636;28;20040;-76
2021/04/06 12:48:38;;;;;;;14.38;2.95;;;16.10;51.00;;;;;;5075501;28;20047;-79
2021/04/06 12:51:04;;;;;;;13.18;3.63;;;16.10;50.80;;;;;;5076759;28;20036;-79
2021/04/06 12:53:30;;;;;;;13.10;3.28;;;16.10;50.60;;;;;;5085073;28;20106;-76
2021/04/06 12:55:55;;;;;;;15.93;2.90;;;16.10;50.80;;;;;;5093993;28;20111;-78
2021/04/06 12:58:22;;;;;;;9.93;3.13;;;16.20;51.00;;;;;;5095074;28;20043;-73
2021/04/06 13:00:48;;;;;;;15.52;2.95;;;16.20;51.30;;;;;;5094759;28;20036;-77
2021/04/06 13:03:14;;;;;;;12.07;2.88;;;16.20;50.40;;;;;;5096571;28;20447;-79
2021/04/06 13:05:40;;;;;;;13.00;2.40;;;16.20;50.60;;;;;;5095276;28;20116;-78